createdAt,value
2018-01-20T00:00:04.236Z,39.42
2018-01-20T00:02:32.368Z,39.28
2018-01-20T00:05:00.525Z,43.53
2018-01-20T00:07:28.665Z,40.67
2018-01-20T00:10:08.592Z,40.38
2018-01-20T00:12:36.714Z,38.08
2018-01-20T00:15:04.872Z,38.45
2018-01-20T00:17:33.010Z,39.47
2018-01-20T00:20:01.164Z,36.80
2018-01-20T00:22:29.298Z,33.65
2018-01-20T00:25:03.403Z,38.00
2018-01-20T00:27:37.255Z,38.17
2018-01-20T00:30:06.191Z,29.48
2018-01-20T00:32:34.328Z,34.50
2018-01-20T00:35:03.299Z,40.08
2018-01-20T00:37:31.422Z,37.50
2018-01-20T00:39:59.581Z,34.30
2018-01-20T00:42:27.711Z,41.00
2018-01-20T00:44:55.874Z,34.50
2018-01-20T00:47:24.007Z,35.17
2018-01-20T00:49:52.162Z,33.65
2018-01-20T00:52:20.292Z,33.30
2018-01-20T00:54:48.448Z,37.95
2018-01-20T00:57:16.581Z,35.58
2018-01-20T00:59:44.741Z,29.77
2018-01-20T01:02:12.873Z,31.98
2018-01-20T01:04:41.058Z,33.40
2018-01-20T01:07:09.183Z,39.35
2018-01-20T01:09:37.346Z,35.25
2018-01-20T01:12:05.498Z,40.95
2018-01-20T01:14:33.669Z,36.72
2018-01-20T01:17:01.798Z,34.60
2018-01-20T01:19:29.958Z,34.13
2018-01-20T01:21:58.086Z,33.20
2018-01-20T01:24:26.250Z,33.38
2018-01-20T01:26:54.381Z,38.58
2018-01-20T01:29:22.542Z,35.58
2018-01-20T01:31:50.672Z,33.38
2018-01-20T01:34:18.834Z,34.30
2018-01-20T01:36:46.961Z,32.60
2018-01-20T01:39:15.117Z,38.15
2018-01-20T01:41:43.244Z,35.10
2018-01-20T01:44:11.410Z,31.48
2018-01-20T01:46:39.541Z,29.73
2018-01-20T01:49:07.697Z,29.00
2018-01-20T01:51:35.839Z,32.60
2018-01-20T01:54:03.991Z,31.70
2018-01-20T01:56:32.548Z,29.85
2018-01-20T01:59:00.705Z,30.92
2018-01-20T02:01:28.842Z,27.65
2018-01-20T02:03:57.020Z,32.90
2018-01-20T02:06:25.157Z,31.67
2018-01-20T02:08:53.316Z,31.80
2018-01-20T02:11:21.444Z,34.47
2018-01-20T02:13:49.597Z,28.00
2018-01-20T02:16:17.726Z,27.40
2018-01-20T02:18:45.858Z,27.17
2018-01-20T02:21:14.018Z,25.17
2018-01-20T02:23:42.158Z,25.33
2018-01-20T02:26:10.314Z,26.45
2018-01-20T02:28:38.454Z,25.98
2018-01-20T02:31:06.605Z,28.90
2018-01-20T02:33:34.737Z,24.90
2018-01-20T02:36:02.900Z,25.17
2018-01-20T02:38:31.045Z,23.00
2018-01-20T02:40:59.200Z,32.83
2018-01-20T02:43:27.336Z,25.23
2018-01-20T02:45:55.495Z,25.83
2018-01-20T02:48:23.625Z,22.15
2018-01-20T02:50:51.795Z,23.92
2018-01-20T02:53:19.925Z,24.12
2018-01-20T02:55:48.077Z,25.23
2018-01-20T02:58:16.204Z,24.85
2018-01-20T03:00:44.361Z,22.02
2018-01-20T03:03:12.487Z,24.42
2018-01-20T03:05:40.648Z,28.38
2018-01-20T03:08:08.781Z,23.83
2018-01-20T03:10:36.965Z,25.12
2018-01-20T03:13:05.090Z,29.37
2018-01-20T03:15:34.012Z,25.52
2018-01-20T03:18:02.755Z,30.55
2018-01-20T03:20:30.909Z,25.75
2018-01-20T03:22:59.040Z,25.17
2018-01-20T03:25:27.196Z,27.80
2018-01-20T03:27:55.324Z,28.62
2018-01-20T03:30:23.484Z,30.15
2018-01-20T03:32:51.606Z,24.63
2018-01-20T03:35:19.768Z,25.37
2018-01-20T03:37:47.905Z,31.25
2018-01-20T03:40:16.057Z,32.92
2018-01-20T03:42:44.189Z,25.90
2018-01-20T03:45:12.354Z,24.05
2018-01-20T03:47:40.511Z,33.60
2018-01-20T03:50:08.667Z,23.08
2018-01-20T03:52:36.798Z,27.73
2018-01-20T03:55:04.948Z,25.62
2018-01-20T03:57:33.089Z,20.98
2018-01-20T04:00:01.248Z,22.98
2018-01-20T04:02:29.376Z,20.52
2018-01-20T04:04:57.535Z,23.80
2018-01-20T04:07:25.664Z,22.02
2018-01-20T04:09:53.826Z,22.70
2018-01-20T04:12:21.957Z,23.85
2018-01-20T04:14:50.123Z,17.77
2018-01-20T04:17:18.258Z,19.40
2018-01-20T04:19:46.413Z,19.80
2018-01-20T04:22:14.555Z,21.52
2018-01-20T04:24:42.713Z,16.40
2018-01-20T04:27:10.840Z,17.92
2018-01-20T04:29:39.003Z,19.70
2018-01-20T04:32:07.128Z,19.15
2018-01-20T04:34:35.293Z,20.50
2018-01-20T04:37:03.421Z,17.80
2018-01-20T04:39:31.579Z,15.50
2018-01-20T04:42:00.502Z,18.37
2018-01-20T04:44:28.633Z,16.02
2018-01-20T04:46:57.549Z,18.20
2018-01-20T04:49:25.683Z,16.73
2018-01-20T04:51:53.841Z,17.20
2018-01-20T04:54:21.969Z,18.00
2018-01-20T04:56:50.128Z,15.27
2018-01-20T04:59:18.258Z,18.62
2018-01-20T05:01:46.413Z,18.15
2018-01-20T05:04:14.542Z,17.05
2018-01-20T05:06:42.693Z,18.40
2018-01-20T05:09:10.824Z,16.30
2018-01-20T05:11:38.980Z,18.90
2018-01-20T05:14:07.104Z,22.17
2018-01-20T05:16:35.257Z,17.55
2018-01-20T05:19:03.383Z,16.73
2018-01-20T05:21:31.542Z,21.92
2018-01-20T05:24:00.437Z,19.27
2018-01-20T05:26:28.598Z,21.08
2018-01-20T05:28:56.725Z,18.48
2018-01-20T05:31:24.885Z,19.50
2018-01-20T05:33:53.014Z,20.73
2018-01-20T05:36:21.175Z,24.35
2018-01-20T05:38:49.306Z,20.35
2018-01-20T05:41:17.457Z,22.42
2018-01-20T05:43:45.594Z,23.75
2018-01-20T05:46:13.763Z,22.33
2018-01-20T05:48:41.908Z,23.02
2018-01-20T05:51:10.071Z,24.25
2018-01-20T05:53:38.197Z,20.70
2018-01-20T05:56:06.362Z,21.23
2018-01-20T05:58:34.498Z,24.12
2018-01-20T06:01:02.654Z,26.15
2018-01-20T06:03:30.785Z,25.08
2018-01-20T06:05:58.945Z,23.30
2018-01-20T06:08:27.085Z,25.20
2018-01-20T06:10:55.254Z,20.60
2018-01-20T06:13:23.441Z,21.15
2018-01-20T06:15:51.573Z,20.08
2018-01-20T06:18:20.459Z,26.45
2018-01-20T06:20:48.617Z,22.40
2018-01-20T06:23:16.744Z,20.83
2018-01-20T06:25:44.905Z,19.05
2018-01-20T06:28:13.033Z,18.67
2018-01-20T06:30:41.228Z,18.98
2018-01-20T06:33:10.122Z,21.83
2018-01-20T06:35:38.277Z,20.40
2018-01-20T06:38:06.405Z,21.52
2018-01-20T06:40:34.561Z,19.27
2018-01-20T06:43:02.698Z,19.80
2018-01-20T06:45:30.853Z,20.23
2018-01-20T06:47:58.984Z,22.52
2018-01-20T06:50:27.150Z,22.27
2018-01-20T06:52:55.282Z,21.60
2018-01-20T06:55:23.437Z,20.85
2018-01-20T06:57:51.560Z,23.10
2018-01-20T07:00:19.729Z,25.50
2018-01-20T07:02:47.865Z,24.10
2018-01-20T07:05:16.025Z,26.85
2018-01-20T07:07:44.152Z,25.25
2018-01-20T07:10:12.289Z,20.40
2018-01-20T07:12:40.453Z,21.58
2018-01-20T07:15:08.577Z,25.37
2018-01-20T07:17:36.729Z,23.62
2018-01-20T07:20:05.630Z,23.98
2018-01-20T07:22:33.788Z,24.87
2018-01-20T07:25:02.690Z,22.08
2018-01-20T07:27:30.849Z,24.95
2018-01-20T07:29:58.974Z,27.75
2018-01-20T07:32:27.128Z,27.35
2018-01-20T07:34:55.266Z,24.33
2018-01-20T07:37:23.416Z,25.55
2018-01-20T07:39:57.102Z,23.25
2018-01-20T07:42:25.261Z,22.85
2018-01-20T07:44:53.398Z,24.60
2018-01-20T07:47:21.548Z,22.10
2018-01-20T07:49:49.676Z,28.50
2018-01-20T07:52:17.833Z,25.65
2018-01-20T07:54:45.956Z,28.92
2018-01-20T07:57:14.108Z,29.37
2018-01-20T07:59:42.254Z,27.67
2018-01-20T08:02:10.405Z,28.70
2018-01-20T08:04:38.546Z,28.52
2018-01-20T08:07:06.703Z,29.05
2018-01-20T08:09:37.496Z,27.15
2018-01-20T08:12:05.648Z,26.23
2018-01-20T08:14:33.785Z,27.37
2018-01-20T08:17:01.954Z,29.65
2018-01-20T08:19:30.090Z,28.70
2018-01-20T08:21:58.269Z,32.97
2018-01-20T08:24:26.393Z,32.55
2018-01-20T08:26:54.553Z,30.92
2018-01-20T08:29:22.684Z,28.48
2018-01-20T08:31:50.842Z,38.40
2018-01-20T08:34:19.736Z,29.55
2018-01-20T08:36:47.894Z,31.12
2018-01-20T08:39:16.025Z,30.15
2018-01-20T08:41:44.177Z,25.98
2018-01-20T08:44:12.312Z,28.65
2018-01-20T08:46:40.482Z,27.98
2018-01-20T08:49:08.626Z,32.88
2018-01-20T08:51:36.777Z,27.80
2018-01-20T08:54:05.017Z,32.10
2018-01-20T08:56:33.958Z,32.25
2018-01-20T08:59:02.085Z,27.83
2018-01-20T09:01:31.005Z,32.97
2018-01-20T09:03:59.144Z,26.52
2018-01-20T09:06:27.310Z,30.77
2018-01-20T09:08:56.508Z,29.45
2018-01-20T09:11:24.673Z,25.37
2018-01-20T09:13:52.808Z,27.35
2018-01-20T09:16:20.996Z,29.67
2018-01-20T09:18:49.139Z,33.95
2018-01-20T09:21:17.299Z,26.65
2018-01-20T09:23:45.435Z,32.30
2018-01-20T09:26:13.584Z,25.45
2018-01-20T09:28:41.715Z,30.62
2018-01-20T09:31:10.642Z,24.98
2018-01-20T09:33:38.777Z,29.15
2018-01-20T09:36:07.678Z,26.60
2018-01-20T09:38:35.833Z,26.87
2018-01-20T09:41:04.746Z,24.92
2018-01-20T09:43:32.932Z,26.70
2018-01-20T09:46:01.097Z,24.65
2018-01-20T09:48:29.257Z,23.60
2018-01-20T09:50:57.402Z,23.92
2018-01-20T09:53:25.605Z,21.42
2018-01-20T09:55:53.733Z,22.85
2018-01-20T09:58:21.892Z,21.25
2018-01-20T10:00:50.030Z,25.65
2018-01-20T10:03:18.191Z,29.35
2018-01-20T10:05:46.357Z,25.20
2018-01-20T10:08:14.554Z,21.05
2018-01-20T10:10:42.703Z,26.12
2018-01-20T10:13:10.889Z,24.95
2018-01-20T10:15:39.040Z,27.83
2018-01-20T10:18:07.195Z,26.67
2018-01-20T10:20:35.337Z,26.40
2018-01-20T10:23:03.491Z,25.62
2018-01-20T10:25:31.621Z,19.98
2018-01-20T10:27:59.814Z,21.00
2018-01-20T10:30:27.956Z,23.85
2018-01-20T10:32:56.109Z,24.63
2018-01-20T10:35:24.258Z,19.55
2018-01-20T10:37:52.441Z,21.05
2018-01-20T10:40:20.585Z,29.05
2018-01-20T10:42:48.749Z,19.27
2018-01-20T10:45:16.882Z,21.12
2018-01-20T10:47:45.034Z,20.23
2018-01-20T10:50:13.171Z,28.17
2018-01-20T10:52:41.357Z,24.85
2018-01-20T10:55:10.264Z,21.27
2018-01-20T10:57:38.427Z,24.63
2018-01-20T11:00:06.569Z,26.10
2018-01-20T11:02:37.541Z,24.90
2018-01-20T11:05:05.700Z,23.70
2018-01-20T11:07:34.689Z,21.73
2018-01-20T11:10:03.589Z,25.00
2018-01-20T11:12:31.759Z,18.17
2018-01-20T11:15:00.672Z,20.77
2018-01-20T11:17:28.832Z,26.60
2018-01-20T11:19:56.966Z,20.58
2018-01-20T11:22:25.129Z,20.80
2018-01-20T11:24:53.317Z,19.65
2018-01-20T11:27:21.477Z,26.12
2018-01-20T11:29:49.606Z,21.95
2018-01-20T11:32:17.764Z,21.30
2018-01-20T11:34:46.813Z,22.90
2018-01-20T11:37:14.997Z,26.42
2018-01-20T11:39:43.127Z,21.50
2018-01-20T11:42:11.298Z,24.80
2018-01-20T11:44:39.468Z,24.77
2018-01-20T11:47:07.626Z,22.92
2018-01-20T11:49:35.758Z,23.77
2018-01-20T11:52:03.921Z,21.83
2018-01-20T11:54:32.114Z,33.70
2018-01-20T11:57:00.237Z,22.95
2018-01-20T11:59:29.062Z,22.95
2018-01-20T12:01:57.208Z,21.52
2018-01-20T12:04:25.333Z,25.23
2018-01-20T12:06:53.473Z,25.80
2018-01-20T12:09:21.646Z,21.33
2018-01-20T12:11:49.772Z,23.77
2018-01-20T12:14:17.957Z,19.98
2018-01-20T12:16:46.085Z,21.25
2018-01-20T12:19:14.245Z,26.30
2018-01-20T12:21:42.384Z,22.83
2018-01-20T12:24:10.541Z,26.12
2018-01-20T12:26:38.669Z,20.45
2018-01-20T12:29:06.869Z,23.25
2018-01-20T12:31:35.001Z,25.40
2018-01-20T12:34:03.156Z,24.87
2018-01-20T12:36:31.288Z,24.42
2018-01-20T12:38:59.449Z,25.27
2018-01-20T12:41:27.585Z,23.83
2018-01-20T12:43:55.742Z,30.75
2018-01-20T12:46:23.872Z,26.25
2018-01-20T12:48:52.041Z,29.85
2018-01-20T12:51:20.168Z,27.45
2018-01-20T12:53:48.326Z,27.42
2018-01-20T12:56:16.448Z,27.35
2018-01-20T12:58:44.629Z,23.15
2018-01-20T13:01:12.760Z,25.10
2018-01-20T13:03:40.919Z,28.08
2018-01-20T13:06:09.046Z,29.92
2018-01-20T13:08:37.209Z,30.33
2018-01-20T13:11:05.350Z,25.83
2018-01-20T13:13:33.506Z,25.80
2018-01-20T13:16:01.637Z,28.60
2018-01-20T13:18:29.797Z,25.25
2018-01-20T13:20:57.936Z,25.98
2018-01-20T13:23:26.101Z,26.87
2018-01-20T13:25:54.231Z,29.15
2018-01-20T13:28:22.390Z,26.42
2018-01-20T13:30:50.515Z,26.23
2018-01-20T13:33:18.674Z,23.10
2018-01-20T13:35:46.805Z,23.40
2018-01-20T13:38:14.969Z,27.62
2018-01-20T13:40:43.097Z,28.62
2018-01-20T13:43:12.024Z,30.83
2018-01-20T13:45:40.162Z,26.12
2018-01-20T13:48:09.170Z,25.35
2018-01-20T13:50:37.301Z,25.58
2018-01-20T13:53:05.458Z,26.50
2018-01-20T13:55:33.585Z,23.75
2018-01-20T13:58:01.751Z,30.27
2018-01-20T14:00:29.880Z,24.95
2018-01-20T14:02:58.038Z,30.40
2018-01-20T14:05:26.166Z,28.70
2018-01-20T14:07:54.321Z,32.70
2018-01-20T14:10:23.235Z,23.65
2018-01-20T14:12:51.398Z,33.05
2018-01-20T14:15:20.298Z,28.58
2018-01-20T14:17:48.490Z,29.95
2018-01-20T14:20:16.642Z,29.23
2018-01-20T14:22:44.773Z,34.95
2018-01-20T14:25:12.925Z,27.60
2018-01-20T14:27:41.839Z,30.15
2018-01-20T14:30:10.011Z,26.62
2018-01-20T14:32:38.152Z,32.72
2018-01-20T14:35:06.315Z,34.97
2018-01-20T14:37:34.450Z,28.60
2018-01-20T14:40:02.603Z,24.92
2018-01-20T14:42:30.745Z,28.80
2018-01-20T14:44:58.905Z,29.45
2018-01-20T14:47:27.032Z,27.25
2018-01-20T14:49:55.188Z,33.35
2018-01-20T14:52:23.316Z,29.55
2018-01-20T14:54:51.483Z,29.52
2018-01-20T14:57:19.608Z,30.70
2018-01-20T14:59:47.766Z,30.70
2018-01-20T15:02:15.901Z,32.58
2018-01-20T15:04:44.065Z,29.23
2018-01-20T15:07:12.193Z,32.38
2018-01-20T15:09:40.349Z,26.02
2018-01-20T15:12:08.498Z,32.50
2018-01-20T15:14:36.661Z,27.02
2018-01-20T15:17:04.821Z,28.80
2018-01-20T15:19:32.977Z,33.55
2018-01-20T15:22:01.122Z,34.13
2018-01-20T15:24:29.353Z,27.73
2018-01-20T15:26:57.480Z,30.50
2018-01-20T15:29:25.638Z,31.05
2018-01-20T15:31:53.782Z,28.80
2018-01-20T15:34:22.007Z,29.15
2018-01-20T15:36:50.133Z,34.22
2018-01-20T15:39:18.604Z,31.50
2018-01-20T15:41:46.796Z,46.00
2018-01-20T15:44:15.097Z,40.17
2018-01-20T15:46:43.241Z,38.90
2018-01-20T15:49:11.398Z,34.65
2018-01-20T15:51:40.341Z,27.73
2018-01-20T15:54:08.497Z,28.85
2018-01-20T15:56:36.630Z,32.00
2018-01-20T15:59:04.830Z,30.85
2018-01-20T16:01:32.997Z,28.12
2018-01-20T16:04:01.267Z,32.92
2018-01-20T16:06:29.411Z,32.25
2018-01-20T16:08:57.568Z,25.50
2018-01-20T16:11:25.712Z,27.20
2018-01-20T16:13:53.885Z,27.77
2018-01-20T16:16:22.048Z,28.60
2018-01-20T16:18:50.218Z,31.62
2018-01-20T16:21:18.352Z,32.50
2018-01-20T16:23:46.510Z,31.52
2018-01-20T16:26:14.647Z,26.60
2018-01-20T16:28:42.797Z,31.12
2018-01-20T16:31:10.924Z,30.90
2018-01-20T16:33:39.086Z,32.92
2018-01-20T16:36:07.213Z,33.95
2018-01-20T16:38:35.381Z,30.30
2018-01-20T16:41:03.522Z,29.12
2018-01-20T16:43:31.694Z,31.08
2018-01-20T16:45:59.871Z,31.77
2018-01-20T16:48:28.014Z,30.67
2018-01-20T16:50:56.204Z,25.88
2018-01-20T16:53:24.348Z,28.08
2018-01-20T16:55:52.523Z,24.45
2018-01-20T16:58:20.658Z,29.02
2018-01-20T17:00:48.814Z,24.60
2018-01-20T17:03:16.966Z,27.05
2018-01-20T17:05:45.113Z,27.27
2018-01-20T17:08:13.254Z,32.38
2018-01-20T17:10:41.423Z,29.77
2018-01-20T17:13:10.324Z,29.60
2018-01-20T17:15:38.497Z,25.95
2018-01-20T17:18:07.399Z,31.15
2018-01-20T17:20:35.559Z,35.47
2018-01-20T17:23:04.459Z,28.60
2018-01-20T17:25:32.669Z,33.78
2018-01-20T17:28:00.812Z,25.37
2018-01-20T17:30:28.966Z,30.88
2018-01-20T17:32:57.114Z,30.73
2018-01-20T17:35:25.284Z,27.30
2018-01-20T17:37:53.433Z,33.22
2018-01-20T17:40:21.585Z,35.60
2018-01-20T17:42:49.726Z,28.25
2018-01-20T17:45:18.731Z,32.03
2018-01-20T17:47:47.628Z,33.92
2018-01-20T17:50:15.800Z,30.23
2018-01-20T17:52:43.945Z,34.97
2018-01-20T17:55:12.123Z,32.95
2018-01-20T17:57:40.255Z,33.70
2018-01-20T18:00:08.436Z,35.13
2018-01-20T18:02:36.576Z,37.80
2018-01-20T18:05:04.750Z,39.40
2018-01-20T18:07:32.886Z,31.02
2018-01-20T18:10:01.042Z,38.55
2018-01-20T18:12:29.183Z,40.92
2018-01-20T18:14:57.341Z,37.88
2018-01-20T18:17:25.473Z,37.45
2018-01-20T18:19:53.628Z,39.25
2018-01-20T18:22:21.761Z,39.72
2018-01-20T18:24:49.925Z,33.10
2018-01-20T18:27:18.070Z,32.47
2018-01-20T18:29:46.230Z,38.20
2018-01-20T18:32:14.388Z,38.35
2018-01-20T18:34:42.564Z,37.58
2018-01-20T18:37:10.847Z,37.03
2018-01-20T18:39:39.042Z,44.58
2018-01-20T18:42:07.173Z,41.03
2018-01-20T18:44:35.390Z,37.33
2018-01-20T18:47:03.601Z,46.47
2018-01-20T18:49:31.761Z,36.10
2018-01-20T18:51:59.921Z,45.05
2018-01-20T18:54:28.084Z,42.60
2018-01-20T18:56:57.011Z,54.85
2018-01-20T18:59:25.936Z,38.35
2018-01-20T19:01:54.089Z,44.40
2018-01-20T19:04:22.360Z,43.78
2018-01-20T19:06:50.624Z,43.83
2018-01-20T19:09:18.957Z,47.08
2018-01-20T19:11:47.419Z,51.25
2018-01-20T19:14:16.921Z,45.05
2018-01-20T19:16:45.354Z,47.62
2018-01-20T19:19:13.856Z,49.63
2018-01-20T19:21:43.072Z,48.53
2018-01-20T19:24:13.569Z,49.90
2018-01-20T19:26:41.800Z,43.58
2018-01-20T19:29:09.946Z,40.40
2018-01-20T19:31:38.110Z,43.95
2018-01-20T19:34:06.260Z,50.85
2018-01-20T19:36:34.486Z,49.10
2018-01-20T19:39:02.665Z,53.00
2018-01-20T19:41:30.810Z,55.50
2018-01-20T19:43:59.012Z,50.90
2018-01-20T19:46:27.190Z,61.22
2018-01-20T19:48:55.363Z,58.95
2018-01-20T19:51:23.509Z,64.68
2018-01-20T19:53:51.700Z,59.65
2018-01-20T19:56:19.889Z,67.37
2018-01-20T19:58:48.086Z,64.95
2018-01-20T20:01:16.982Z,58.13
2018-01-20T20:03:45.171Z,68.32
2018-01-20T20:06:13.702Z,67.57
2018-01-20T20:08:42.786Z,60.92
2018-01-20T20:11:37.830Z,65.50
2018-01-20T20:14:06.013Z,57.92
2018-01-20T20:16:34.243Z,67.07
2018-01-20T20:19:02.500Z,71.47
2018-01-20T20:21:30.704Z,62.45
2018-01-20T20:23:58.876Z,59.63
2018-01-20T20:26:33.820Z,59.75
2018-01-20T20:29:02.026Z,60.25
2018-01-20T20:31:30.504Z,62.05
2018-01-20T20:33:58.754Z,68.18
2018-01-20T20:36:29.055Z,77.85
2018-01-20T20:38:57.205Z,79.12
2018-01-20T20:41:25.363Z,63.95
2018-01-20T20:43:53.510Z,73.75
2018-01-20T20:46:21.725Z,64.03
2018-01-20T20:48:49.904Z,67.18
2018-01-20T20:51:18.083Z,73.45
2018-01-20T20:53:46.209Z,72.87
2018-01-20T20:56:14.477Z,69.00
2018-01-20T20:58:42.627Z,68.43
2018-01-20T21:01:10.794Z,73.18
2018-01-20T21:03:38.949Z,66.82
2018-01-20T21:06:07.153Z,65.95
2018-01-20T21:08:36.123Z,70.75
2018-01-20T21:11:04.470Z,68.15
2018-01-20T21:13:32.611Z,71.00
2018-01-20T21:16:01.539Z,81.93
2018-01-20T21:18:29.684Z,78.53
2018-01-20T21:20:58.694Z,80.25
2018-01-20T21:23:26.843Z,84.50
2018-01-20T21:25:55.312Z,75.15
2018-01-20T21:28:23.497Z,87.47
2018-01-20T21:30:52.424Z,82.03
2018-01-20T21:33:20.606Z,74.80
2018-01-20T21:35:48.831Z,88.65
2018-01-20T21:38:17.019Z,78.35
2018-01-20T21:40:45.245Z,87.15
2018-01-20T21:43:13.409Z,88.25
2018-01-20T21:45:41.546Z,89.43
2018-01-20T21:48:09.710Z,95.07
2018-01-20T21:50:37.857Z,92.93
2018-01-20T21:53:06.091Z,90.50
2018-01-20T21:55:34.237Z,92.15
2018-01-20T21:58:02.427Z,83.97
2018-01-20T22:00:30.563Z,85.38
2018-01-20T22:02:59.526Z,71.35
2018-01-20T22:05:27.699Z,81.80
2018-01-20T22:07:55.857Z,80.72
2018-01-20T22:10:24.035Z,85.32
2018-01-20T22:12:52.194Z,72.97
2018-01-20T22:15:20.429Z,68.62
2018-01-20T22:17:49.373Z,80.28
2018-01-20T22:20:18.482Z,76.62
2018-01-20T22:22:46.700Z,81.35
2018-01-20T22:25:14.829Z,77.03
2018-01-20T22:27:43.015Z,77.40
2018-01-20T22:30:11.184Z,75.85
2018-01-20T22:32:39.340Z,76.03
2018-01-20T22:35:07.475Z,78.18
2018-01-20T22:37:35.634Z,72.35
2018-01-20T22:40:04.545Z,75.75
2018-01-20T22:42:32.703Z,76.43
2018-01-20T22:45:00.838Z,69.20
2018-01-20T22:47:29.030Z,64.37
2018-01-20T22:49:57.165Z,63.92
2018-01-20T22:52:25.335Z,67.90
2018-01-20T22:54:53.471Z,65.35
2018-01-20T22:57:21.617Z,65.95
2018-01-20T22:59:49.778Z,66.22
2018-01-20T23:02:17.924Z,71.25
2018-01-20T23:04:46.082Z,67.47
2018-01-20T23:07:14.208Z,65.80
2018-01-20T23:09:42.430Z,58.08
2018-01-20T23:12:10.572Z,63.55
2018-01-20T23:14:38.744Z,61.05
2018-01-20T23:17:06.877Z,55.28
2018-01-20T23:19:35.037Z,71.60
2018-01-20T23:22:03.221Z,62.42
2018-01-20T23:24:31.411Z,58.87
2018-01-20T23:26:59.541Z,59.35
2018-01-20T23:29:27.700Z,54.33
2018-01-20T23:31:55.833Z,57.25
2018-01-20T23:34:23.991Z,60.80
2018-01-20T23:36:52.128Z,55.67
2018-01-20T23:39:20.286Z,52.20
2018-01-20T23:41:48.421Z,57.70
2018-01-20T23:44:16.568Z,51.70
2018-01-20T23:46:44.724Z,52.53
2018-01-20T23:49:12.877Z,49.75
2018-01-20T23:51:41.013Z,51.13
2018-01-20T23:54:09.179Z,50.30
2018-01-20T23:56:37.304Z,55.60
2018-01-20T23:59:05.490Z,47.50
